Time;durP1;ratioP1;P1;durP2;ratioP2;P2;SDS_P1;SDS_P2;PMS_P1;PMS_P2;Temp;Humidity;BMP_temperature;BMP_pressure;BME280_temperature;BME280_humidity;BME280_pressure;Samples;Min_cycle;Max_cycle;Signal;HPM_P1;HPM_P2
2023/07/27 00:00:46;;;;;;;4.50;4.10;;;13.30;99.90;;;;;;4995423;28;20199;-68
2023/07/27 00:03:11;;;;;;;8.10;7.50;;;13.30;99.90;;;;;;4993917;28;20221;-68
2023/07/27 00:05:37;;;;;;;5.07;4.20;;;13.30;99.90;;;;;;5006629;28;20219;-68
2023/07/27 00:08:02;;;;;;;5.30;4.43;;;13.30;99.90;;;;;;4991202;28;20180;-69
2023/07/27 00:10:28;;;;;;;4.80;4.40;;;13.20;99.90;;;;;;5003105;28;20182;-69
2023/07/27 00:12:54;;;;;;;3.67;3.47;;;13.20;99.90;;;;;;5008874;28;20183;-69
2023/07/27 00:15:19;;;;;;;5.93;5.37;;;13.30;99.90;;;;;;5001097;28;20183;-69
2023/07/27 00:17:45;;;;;;;4.73;4.27;;;13.30;99.90;;;;;;5000428;28;20438;-69
2023/07/27 00:20:11;;;;;;;5.03;4.57;;;13.30;99.90;;;;;;4988571;28;20175;-69
2023/07/27 00:22:37;;;;;;;4.87;4.40;;;13.40;99.90;;;;;;4991714;28;20333;-68
2023/07/27 00:25:02;;;;;;;4.85;4.40;;;13.40;99.90;;;;;;5000426;28;20477;-69
2023/07/27 00:27:28;;;;;;;4.13;3.73;;;13.40;99.90;;;;;;4992232;28;20534;-69
2023/07/27 00:29:53;;;;;;;5.50;4.80;;;13.50;99.90;;;;;;4991623;28;20186;-68
2023/07/27 00:32:19;;;;;;;5.10;4.70;;;13.50;99.90;;;;;;4991404;28;20171;-70
2023/07/27 00:34:44;;;;;;;4.40;4.10;;;13.60;99.90;;;;;;5000296;28;20211;-68
2023/07/27 00:37:10;;;;;;;4.03;3.60;;;13.60;99.90;;;;;;4992104;28;20274;-68
2023/07/27 00:39:35;;;;;;;4.33;4.03;;;13.60;99.90;;;;;;4990773;28;20259;-70
2023/07/27 00:42:01;;;;;;;4.30;3.90;;;13.60;99.90;;;;;;4991090;28;20672;-70
2023/07/27 00:44:26;;;;;;;12.00;7.07;;;13.60;99.90;;;;;;4991539;28;20587;-69
2023/07/27 00:46:52;;;;;;;4.50;4.17;;;13.60;99.90;;;;;;4996955;28;20777;-68
2023/07/27 00:49:19;;;;;;;3.80;3.50;;;13.60;99.90;;;;;;4992781;28;20190;-70
2023/07/27 00:51:46;;;;;;;5.83;4.50;;;13.60;99.90;;;;;;5002537;28;20213;-70
2023/07/27 00:54:13;;;;;;;4.03;3.73;;;13.60;99.90;;;;;;4998486;28;20453;-69
2023/07/27 00:56:39;;;;;;;4.90;4.40;;;13.60;99.90;;;;;;5001294;28;20442;-69
2023/07/27 00:59:05;;;;;;;4.63;4.13;;;13.60;99.90;;;;;;5003321;28;20445;-69
2023/07/27 01:01:31;;;;;;;5.30;4.80;;;13.60;99.90;;;;;;4994648;28;20194;-69
2023/07/27 01:03:57;;;;;;;4.37;3.97;;;13.50;99.90;;;;;;5002632;28;20450;-70
2023/07/27 01:06:24;;;;;;;4.37;4.07;;;13.60;99.90;;;;;;5003932;28;20310;-68
2023/07/27 01:08:51;;;;;;;4.77;4.27;;;13.50;99.90;;;;;;5003909;28;20238;-70
2023/07/27 01:11:41;;;;;;;4.03;3.73;;;13.50;99.90;;;;;;4998841;28;20447;-68
2023/07/27 01:14:18;;;;;;;4.23;3.87;;;13.50;99.90;;;;;;4997534;28;20519;-69
2023/07/27 01:16:51;;;;;;;4.43;3.90;;;13.60;99.90;;;;;;4990195;28;20440;-69
2023/07/27 01:19:38;;;;;;;3.80;3.50;;;13.60;99.90;;;;;;4996741;28;20446;-69
2023/07/27 01:22:31;;;;;;;3.87;3.57;;;13.60;99.90;;;;;;4995583;28;20939;-69
2023/07/27 01:25:19;;;;;;;4.70;3.20;;;13.60;99.90;;;;;;4994348;28;20451;-69
2023/07/27 01:27:51;;;;;;;3.63;3.33;;;13.60;99.90;;;;;;4991981;28;20437;-69
2023/07/27 01:30:54;;;;;;;3.30;3.10;;;13.60;99.90;;;;;;4994245;28;20955;-69
2023/07/27 01:33:37;;;;;;;3.97;3.67;;;13.70;99.90;;;;;;4994316;28;20496;-68
2023/07/27 01:36:10;;;;;;;7.87;4.10;;;13.60;99.90;;;;;;5000719;28;20960;-69
2023/07/27 01:38:39;;;;;;;5.00;3.70;;;13.60;99.90;;;;;;4992107;28;20437;-69
2023/07/27 01:41:07;;;;;;;4.20;3.70;;;13.60;99.90;;;;;;4990954;28;20466;-69
2023/07/27 01:43:34;;;;;;;3.60;3.30;;;13.60;99.90;;;;;;4998694;28;20910;-70
2023/07/27 01:46:01;;;;;;;5.10;3.67;;;13.60;99.90;;;;;;5003230;28;20827;-69
2023/07/27 01:48:28;;;;;;;3.93;3.60;;;13.50;99.90;;;;;;5005792;28;20433;-70
2023/07/27 01:50:55;;;;;;;4.03;3.63;;;13.50;99.90;;;;;;4993995;28;20996;-69
2023/07/27 01:53:22;;;;;;;5.33;4.07;;;13.50;99.90;;;;;;4997572;28;20824;-67
2023/07/27 01:55:49;;;;;;;7.80;4.10;;;13.50;99.90;;;;;;4993386;28;20449;-69
2023/07/27 01:58:18;;;;;;;4.20;3.80;;;13.50;99.90;;;;;;4995628;28;20794;-69
2023/07/27 02:00:44;;;;;;;5.20;4.00;;;13.60;99.90;;;;;;4993523;28;20944;-69
2023/07/27 02:03:10;;;;;;;3.70;3.40;;;13.50;99.90;;;;;;4993499;28;20504;-69
2023/07/27 02:05:36;;;;;;;4.10;3.80;;;13.50;99.90;;;;;;4994170;28;20199;-70
2023/07/27 02:08:01;;;;;;;3.90;3.60;;;13.50;99.90;;;;;;4994133;28;20437;-69
2023/07/27 02:10:30;;;;;;;4.60;4.20;;;13.50;99.90;;;;;;5008726;28;20179;-69
2023/07/27 02:13:16;;;;;;;4.10;3.80;;;13.50;99.90;;;;;;4994392;28;20578;-69
2023/07/27 02:15:50;;;;;;;3.33;3.13;;;13.50;99.90;;;;;;4988425;28;20446;-70
2023/07/27 02:18:21;;;;;;;4.70;3.20;;;13.40;99.90;;;;;;4993814;28;20469;-70
2023/07/27 02:20:50;;;;;;;4.07;3.70;;;13.50;99.90;;;;;;4992724;28;21934;-69
2023/07/27 02:23:17;;;;;;;4.60;4.30;;;13.50;99.90;;;;;;5004519;28;20575;-69
2023/07/27 02:25:43;;;;;;;3.90;3.60;;;13.50;99.90;;;;;;4996274;28;20454;-69
2023/07/27 02:28:10;;;;;;;3.67;3.37;;;13.50;99.90;;;;;;4994208;28;20504;-67
2023/07/27 02:30:36;;;;;;;4.80;3.23;;;13.50;99.90;;;;;;4994206;28;20798;-69
2023/07/27 02:33:02;;;;;;;3.60;3.30;;;13.50;99.90;;;;;;5001086;28;20881;-68
2023/07/27 02:35:28;;;;;;;4.00;3.13;;;13.60;99.90;;;;;;4999712;28;20436;-69
2023/07/27 02:37:53;;;;;;;4.10;3.80;;;13.60;99.90;;;;;;4992865;28;20520;-70
2023/07/27 02:40:19;;;;;;;3.60;3.30;;;13.60;99.90;;;;;;4998563;28;20226;-69
2023/07/27 02:42:44;;;;;;;3.70;3.40;;;13.70;99.90;;;;;;4996472;28;20205;-70
2023/07/27 02:45:11;;;;;;;3.50;3.20;;;13.70;99.90;;;;;;4999433;28;20661;-70
2023/07/27 02:47:36;;;;;;;4.13;3.83;;;13.80;99.90;;;;;;5008664;28;20210;-70
2023/07/27 02:50:02;;;;;;;3.90;3.30;;;13.80;99.90;;;;;;5000373;28;20876;-69
2023/07/27 02:52:27;;;;;;;3.43;3.13;;;13.90;99.90;;;;;;4992226;28;20656;-69
2023/07/27 02:54:53;;;;;;;4.77;4.47;;;13.90;99.90;;;;;;4999209;28;20234;-69
2023/07/27 02:57:18;;;;;;;3.53;3.33;;;14.00;99.90;;;;;;5000662;28;20215;-69
2023/07/27 02:59:44;;;;;;;5.90;4.00;;;14.00;99.90;;;;;;4995463;28;20274;-70
2023/07/27 03:02:09;;;;;;;3.40;3.10;;;14.00;99.90;;;;;;4990130;28;20194;-70
2023/07/27 03:04:35;;;;;;;3.60;3.23;;;14.10;99.90;;;;;;4994200;28;20210;-69
2023/07/27 03:07:00;;;;;;;3.00;2.73;;;14.10;99.90;;;;;;4999615;28;20253;-69
2023/07/27 03:09:26;;;;;;;5.17;3.23;;;14.10;99.90;;;;;;5003867;28;20210;-69
2023/07/27 03:11:51;;;;;;;3.77;3.47;;;14.10;99.90;;;;;;5001243;28;20194;-69
2023/07/27 03:14:17;;;;;;;3.87;3.57;;;14.10;99.90;;;;;;4997501;28;20222;-70
2023/07/27 03:16:42;;;;;;;4.50;3.50;;;14.10;99.90;;;;;;5004178;28;20222;-69
2023/07/27 03:19:08;;;;;;;3.30;3.10;;;14.10;99.90;;;;;;4993032;28;20184;-67
2023/07/27 03:21:33;;;;;;;4.03;3.63;;;14.10;99.90;;;;;;4995145;28;20197;-68
2023/07/27 03:23:59;;;;;;;6.83;3.47;;;14.00;99.90;;;;;;4991571;28;20700;-68
2023/07/27 03:26:24;;;;;;;3.90;3.60;;;14.10;99.90;;;;;;4998985;28;20676;-68
2023/07/27 03:28:50;;;;;;;3.83;3.43;;;14.10;99.90;;;;;;4992692;28;20195;-69
2023/07/27 03:31:22;;;;;;;6.63;3.70;;;14.00;99.90;;;;;;4997011;28;20218;-69
2023/07/27 03:33:48;;;;;;;3.90;3.60;;;14.10;99.90;;;;;;4998482;28;20207;-70
2023/07/27 03:36:18;;;;;;;4.63;3.10;;;14.10;99.90;;;;;;4995381;28;20441;-69
2023/07/27 03:38:44;;;;;;;4.40;4.00;;;14.10;99.90;;;;;;5007414;28;20520;-69
2023/07/27 03:41:11;;;;;;;4.17;3.43;;;14.10;99.90;;;;;;5002357;28;20434;-68
2023/07/27 03:43:37;;;;;;;3.53;3.33;;;14.10;99.90;;;;;;4989489;28;20462;-67
2023/07/27 03:46:02;;;;;;;3.53;3.23;;;14.10;99.90;;;;;;4990513;28;20462;-68
2023/07/27 03:48:28;;;;;;;7.90;3.63;;;14.10;99.90;;;;;;4990799;28;20660;-68
2023/07/27 03:50:53;;;;;;;3.87;3.40;;;14.10;99.90;;;;;;4990124;28;20190;-69
2023/07/27 03:53:19;;;;;;;3.40;3.10;;;14.10;99.90;;;;;;4989964;28;20195;-68
2023/07/27 03:55:45;;;;;;;4.50;3.07;;;14.10;99.90;;;;;;4992640;28;20184;-67
2023/07/27 03:58:11;;;;;;;3.70;3.40;;;14.10;99.90;;;;;;4992273;28;20488;-68
2023/07/27 04:00:37;;;;;;;4.07;3.77;;;14.10;99.90;;;;;;4992289;28;20442;-69
2023/07/27 04:03:02;;;;;;;4.13;3.70;;;14.10;99.90;;;;;;4989976;28;20191;-69
2023/07/27 04:05:28;;;;;;;3.23;3.03;;;14.10;99.90;;;;;;4990474;28;20282;-68
2023/07/27 04:07:53;;;;;;;3.53;2.97;;;14.10;99.90;;;;;;4991876;28;20183;-68
2023/07/27 04:10:19;;;;;;;4.00;3.70;;;14.10;99.90;;;;;;4991932;28;20179;-68
2023/07/27 04:12:44;;;;;;;4.10;3.60;;;14.10;99.90;;;;;;4991232;28;20179;-68
2023/07/27 04:15:10;;;;;;;4.73;4.33;;;14.10;99.90;;;;;;4992355;28;20183;-68
2023/07/27 04:17:36;;;;;;;6.97;3.53;;;14.10;99.90;;;;;;4983838;28;20186;-68
2023/07/27 04:20:01;;;;;;;5.33;3.43;;;14.10;99.90;;;;;;4990602;28;20460;-68
2023/07/27 04:22:27;;;;;;;3.77;3.47;;;14.10;99.90;;;;;;4991590;28;20176;-69
2023/07/27 04:24:53;;;;;;;3.80;3.47;;;14.10;99.90;;;;;;4999138;28;20668;-69
2023/07/27 04:27:18;;;;;;;5.83;3.80;;;14.10;99.90;;;;;;5011289;28;20202;-69
2023/07/27 04:29:44;;;;;;;4.20;3.70;;;14.20;99.90;;;;;;4991979;28;20183;-68
2023/07/27 04:32:09;;;;;;;4.20;3.30;;;14.20;99.90;;;;;;4991419;28;20183;-66
2023/07/27 04:34:35;;;;;;;4.40;4.00;;;14.10;99.90;;;;;;5003084;28;20198;-68
2023/07/27 04:37:00;;;;;;;4.10;3.70;;;14.20;99.90;;;;;;5002497;28;20588;-69
2023/07/27 04:39:26;;;;;;;3.83;3.27;;;14.20;99.90;;;;;;4990374;28;20226;-68
2023/07/27 04:41:52;;;;;;;3.60;3.30;;;14.20;99.90;;;;;;4990648;28;20175;-69
2023/07/27 04:44:17;;;;;;;3.70;3.40;;;14.20;99.90;;;;;;4989603;28;20199;-68
2023/07/27 04:46:43;;;;;;;5.47;4.13;;;14.30;99.90;;;;;;4994405;28;20234;-68
2023/07/27 04:49:08;;;;;;;4.30;3.90;;;14.30;99.90;;;;;;4987221;28;20183;-69
2023/07/27 04:51:34;;;;;;;4.17;3.77;;;14.30;99.90;;;;;;4991729;28;20188;-68
2023/07/27 04:54:01;;;;;;;3.90;3.60;;;14.40;99.90;;;;;;4990733;28;20204;-69
2023/07/27 04:56:26;;;;;;;4.90;4.20;;;14.40;99.90;;;;;;4993814;28;20710;-68
2023/07/27 04:58:52;;;;;;;5.70;3.13;;;14.50;99.90;;;;;;4989950;28;20442;-69
2023/07/27 05:01:17;;;;;;;3.60;3.30;;;14.50;99.90;;;;;;4989029;28;20195;-69
2023/07/27 05:03:43;;;;;;;4.97;4.47;;;14.50;99.90;;;;;;4988409;28;20210;-69
2023/07/27 05:06:09;;;;;;;3.13;2.93;;;14.60;99.90;;;;;;4986107;28;20575;-68
2023/07/27 05:08:34;;;;;;;4.10;3.40;;;14.60;99.90;;;;;;4993109;28;20438;-68
2023/07/27 05:11:03;;;;;;;4.53;4.07;;;14.70;99.90;;;;;;4998258;28;20179;-68
2023/07/27 05:13:28;;;;;;;4.10;3.80;;;14.70;99.90;;;;;;4992467;28;20691;-68
2023/07/27 05:15:54;;;;;;;3.93;3.37;;;14.70;99.90;;;;;;4998133;28;20433;-69
2023/07/27 05:18:19;;;;;;;4.67;3.73;;;14.70;99.90;;;;;;5002966;28;20221;-69
2023/07/27 05:20:45;;;;;;;3.17;2.67;;;14.80;99.90;;;;;;5011825;28;20581;-68
2023/07/27 05:23:10;;;;;;;4.43;3.67;;;14.80;99.90;;;;;;5005157;28;20195;-69
2023/07/27 05:25:36;;;;;;;3.77;3.40;;;14.90;99.90;;;;;;4995464;28;20694;-68
2023/07/27 05:28:02;;;;;;;4.27;3.97;;;14.90;99.90;;;;;;5003547;28;20174;-68
2023/07/27 05:30:28;;;;;;;3.30;3.03;;;15.00;99.90;;;;;;5011253;28;20179;-68
2023/07/27 05:32:53;;;;;;;4.07;3.23;;;15.10;99.90;;;;;;4992766;28;20986;-68
2023/07/27 05:35:19;;;;;;;3.93;3.63;;;15.10;99.90;;;;;;4993403;28;20189;-68
2023/07/27 05:37:46;;;;;;;5.07;3.00;;;15.10;99.90;;;;;;5003495;28;20221;-68
2023/07/27 05:40:14;;;;;;;6.23;3.50;;;15.20;99.90;;;;;;4999159;28;20207;-68
2023/07/27 05:42:40;;;;;;;3.77;3.47;;;15.20;99.90;;;;;;4997360;28;20776;-68
2023/07/27 05:45:06;;;;;;;3.50;3.20;;;15.30;99.90;;;;;;5005482;28;20818;-68
2023/07/27 05:47:31;;;;;;;3.97;3.63;;;15.30;99.90;;;;;;5008535;28;20458;-68
2023/07/27 05:49:58;;;;;;;3.80;3.50;;;15.40;99.90;;;;;;5003589;28;20990;-67
2023/07/27 05:52:24;;;;;;;4.10;3.27;;;15.40;99.90;;;;;;4995480;28;20164;-68
2023/07/27 05:54:49;;;;;;;4.20;3.50;;;15.50;99.90;;;;;;4995173;28;20462;-68
2023/07/27 05:57:15;;;;;;;3.40;3.10;;;15.60;99.90;;;;;;5004926;28;20490;-68
2023/07/27 05:59:40;;;;;;;3.33;3.10;;;15.60;99.90;;;;;;4997663;28;20325;-68
2023/07/27 06:02:06;;;;;;;3.90;3.50;;;15.60;99.90;;;;;;4995542;28;20183;-68
2023/07/27 06:04:32;;;;;;;3.87;3.47;;;15.50;99.90;;;;;;4994957;28;20195;-68
2023/07/27 06:06:58;;;;;;;4.80;3.40;;;15.70;99.90;;;;;;5003207;28;20230;-68
2023/07/27 06:09:24;;;;;;;4.20;3.80;;;15.80;99.90;;;;;;4994932;28;20216;-69
2023/07/27 06:11:50;;;;;;;3.97;3.67;;;15.90;99.90;;;;;;4993258;28;20516;-68
2023/07/27 06:14:15;;;;;;;4.70;4.17;;;15.80;99.90;;;;;;4993005;28;20569;-69
2023/07/27 06:16:41;;;;;;;4.20;2.83;;;16.00;99.90;;;;;;4990164;28;20684;-68
2023/07/27 06:19:06;;;;;;;3.70;3.40;;;16.00;99.90;;;;;;4989959;28;21123;-68
2023/07/27 06:21:32;;;;;;;4.43;4.10;;;16.10;99.90;;;;;;4990025;28;20192;-67
2023/07/27 06:23:57;;;;;;;4.07;3.67;;;16.20;99.90;;;;;;4991225;28;20211;-68
2023/07/27 06:26:23;;;;;;;3.40;3.10;;;16.20;99.90;;;;;;4991341;28;20687;-68
2023/07/27 06:28:48;;;;;;;3.90;3.30;;;16.30;99.90;;;;;;4992439;28;20180;-66
2023/07/27 06:31:14;;;;;;;3.37;3.17;;;16.30;99.90;;;;;;4998239;28;20626;-69
2023/07/27 06:33:40;;;;;;;4.20;3.47;;;16.30;99.90;;;;;;4999264;28;20211;-68
2023/07/27 06:36:11;;;;;;;4.17;3.77;;;16.20;99.90;;;;;;4993448;28;20183;-66
2023/07/27 06:38:38;;;;;;;3.43;3.17;;;16.10;99.90;;;;;;4995196;28;20175;-69
2023/07/27 06:41:04;;;;;;;3.90;3.50;;;16.20;99.90;;;;;;4997010;28;20488;-67
2023/07/27 06:43:29;;;;;;;4.40;3.87;;;16.40;99.90;;;;;;4997073;28;20928;-67
2023/07/27 06:45:55;;;;;;;8.60;3.93;;;16.50;99.90;;;;;;4990353;28;20204;-68
2023/07/27 06:48:21;;;;;;;4.40;4.10;;;16.50;99.90;;;;;;4993331;28;20318;-68
2023/07/27 06:50:46;;;;;;;5.30;3.77;;;16.60;99.90;;;;;;4989106;28;20184;-67
2023/07/27 06:53:11;;;;;;;3.00;2.80;;;16.70;99.90;;;;;;4990964;28;20275;-68
2023/07/27 06:55:38;;;;;;;3.63;3.33;;;16.80;99.90;;;;;;4986726;28;20188;-68
2023/07/27 06:58:03;;;;;;;5.13;4.03;;;16.90;99.90;;;;;;4988090;28;20186;-68
2023/07/27 07:00:29;;;;;;;4.33;3.93;;;17.00;99.90;;;;;;4990424;28;20446;-66
2023/07/27 07:02:55;;;;;;;4.70;4.30;;;17.10;99.90;;;;;;4993133;28;20254;-68
2023/07/27 07:05:20;;;;;;;3.70;3.40;;;17.10;99.90;;;;;;4996903;28;20175;-68
2023/07/27 07:07:46;;;;;;;4.33;3.10;;;17.20;99.90;;;;;;4991085;28;20435;-67
2023/07/27 07:10:11;;;;;;;3.43;3.17;;;17.20;99.90;;;;;;4987711;28;20183;-73
2023/07/27 07:12:38;;;;;;;4.17;3.70;;;17.20;99.90;;;;;;4990762;28;20230;-74
2023/07/27 07:15:04;;;;;;;3.60;3.30;;;17.20;99.90;;;;;;4989571;28;20234;-74
2023/07/27 07:17:30;;;;;;;6.33;4.10;;;17.20;99.90;;;;;;4989765;28;20430;-74
2023/07/27 07:19:56;;;;;;;5.37;4.87;;;17.20;99.90;;;;;;4998121;28;20442;-74
2023/07/27 07:22:22;;;;;;;3.50;3.30;;;17.20;99.90;;;;;;4982688;28;20175;-74
2023/07/27 07:24:47;;;;;;;3.27;3.03;;;17.40;99.90;;;;;;4989501;28;20517;-74
2023/07/27 07:27:13;;;;;;;3.73;3.23;;;17.20;99.90;;;;;;4989384;28;20199;-74
2023/07/27 07:29:39;;;;;;;3.47;3.27;;;17.20;99.90;;;;;;4988663;28;20179;-74
2023/07/27 07:32:04;;;;;;;3.53;3.07;;;17.20;99.90;;;;;;4990029;28;20214;-74
2023/07/27 07:34:33;;;;;;;3.50;3.20;;;17.20;99.90;;;;;;4987638;28;20708;-74
2023/07/27 07:37:00;;;;;;;3.63;3.20;;;17.20;99.90;;;;;;4990101;28;20180;-73
2023/07/27 07:39:26;;;;;;;3.90;3.60;;;17.20;99.90;;;;;;4994230;28;20518;-74
2023/07/27 07:41:51;;;;;;;4.30;3.90;;;17.10;99.90;;;;;;4990715;28;20529;-74
2023/07/27 07:44:17;;;;;;;3.17;2.97;;;17.10;99.90;;;;;;4990980;28;20254;-74
2023/07/27 07:46:42;;;;;;;3.67;3.37;;;17.20;99.90;;;;;;4990226;28;20235;-74
2023/07/27 07:49:08;;;;;;;3.83;3.50;;;17.10;99.90;;;;;;4988285;28;20245;-73
2023/07/27 07:51:34;;;;;;;4.07;3.60;;;17.10;99.90;;;;;;4991416;28;20292;-74
2023/07/27 07:53:59;;;;;;;3.73;3.43;;;17.00;99.90;;;;;;4990648;28;20737;-74
2023/07/27 07:56:25;;;;;;;4.13;3.30;;;17.00;99.90;;;;;;4990465;28;20431;-74
2023/07/27 07:58:51;;;;;;;5.10;4.10;;;16.90;99.90;;;;;;4989234;28;21018;-74
2023/07/27 08:01:16;;;;;;;3.03;2.83;;;16.90;99.90;;;;;;4987993;28;20183;-73
2023/07/27 08:03:42;;;;;;;3.93;3.20;;;16.90;99.90;;;;;;4990500;28;20700;-74
2023/07/27 08:06:11;;;;;;;3.60;3.30;;;16.90;99.90;;;;;;4991265;28;20204;-73
2023/07/27 08:08:36;;;;;;;3.57;3.27;;;16.90;99.90;;;;;;4994643;28;20188;-74
2023/07/27 08:11:04;;;;;;;3.63;3.30;;;17.00;99.90;;;;;;4989827;28;20955;-74
2023/07/27 08:13:31;;;;;;;3.90;3.60;;;17.10;99.90;;;;;;4987537;28;20298;-73
2023/07/27 08:15:56;;;;;;;4.00;3.43;;;17.20;99.90;;;;;;4992521;28;20497;-73
2023/07/27 08:18:22;;;;;;;3.70;3.30;;;17.20;99.90;;;;;;4989675;28;20438;-74
2023/07/27 08:20:58;;;;;;;3.60;3.27;;;17.30;99.90;;;;;;4988138;28;20187;-73
2023/07/27 08:23:23;;;;;;;3.57;3.00;;;17.30;99.90;;;;;;4989938;28;20203;-74
2023/07/27 08:25:49;;;;;;;2.90;2.60;;;17.40;99.90;;;;;;4991353;28;20516;-73
2023/07/27 08:28:15;;;;;;;3.97;3.57;;;17.40;99.90;;;;;;4989187;28;20179;-74
2023/07/27 08:30:43;;;;;;;5.13;4.63;;;17.40;99.90;;;;;;4989756;28;20198;-74
2023/07/27 08:33:08;;;;;;;4.17;3.77;;;17.50;99.90;;;;;;4993364;28;20211;-73
2023/07/27 08:35:34;;;;;;;4.37;3.80;;;17.50;99.90;;;;;;4995713;28;20792;-74
2023/07/27 08:37:59;;;;;;;4.37;3.40;;;17.50;99.90;;;;;;4990538;28;20673;-73
2023/07/27 08:40:25;;;;;;;3.63;3.17;;;17.60;99.90;;;;;;4993336;28;20184;-74
2023/07/27 08:42:51;;;;;;;3.70;3.40;;;17.70;99.90;;;;;;4995237;28;20673;-74
2023/07/27 08:45:20;;;;;;;3.97;3.67;;;17.70;99.90;;;;;;4991403;28;20176;-73
2023/07/27 08:47:47;;;;;;;3.93;3.60;;;17.60;99.90;;;;;;4986411;28;20193;-74
2023/07/27 08:50:14;;;;;;;3.67;3.30;;;17.60;99.90;;;;;;4988270;28;20431;-74
2023/07/27 08:52:40;;;;;;;3.40;3.10;;;17.60;99.90;;;;;;4989299;28;20496;-74
2023/07/27 08:55:05;;;;;;;3.30;3.00;;;17.80;99.90;;;;;;4990344;28;20462;-73
2023/07/27 08:57:31;;;;;;;3.00;2.80;;;17.90;99.90;;;;;;4988148;28;20258;-73
2023/07/27 08:59:57;;;;;;;3.67;3.37;;;17.90;99.90;;;;;;4987056;28;20187;-73
2023/07/27 09:02:22;;;;;;;3.60;3.40;;;18.00;99.90;;;;;;4993621;28;20241;-73
2023/07/27 09:04:48;;;;;;;3.90;3.43;;;18.00;99.90;;;;;;4996282;28;20214;-73
2023/07/27 09:07:14;;;;;;;7.87;4.20;;;18.10;99.90;;;;;;4997596;28;20239;-74
2023/07/27 09:09:40;;;;;;;4.00;3.60;;;18.20;99.90;;;;;;4986140;28;21109;-74
2023/07/27 09:12:07;;;;;;;3.37;3.07;;;18.10;99.90;;;;;;4990933;28;20461;-73
2023/07/27 09:14:36;;;;;;;3.70;3.23;;;18.10;99.90;;;;;;4983552;28;20878;-73
2023/07/27 09:17:02;;;;;;;3.33;3.13;;;18.10;99.90;;;;;;4988629;28;21066;-73
2023/07/27 09:19:33;;;;;;;3.67;3.37;;;18.10;99.90;;;;;;4992379;28;20434;-73
2023/07/27 09:21:59;;;;;;;3.40;2.90;;;18.20;99.90;;;;;;5001938;28;20268;-74
2023/07/27 09:24:24;;;;;;;4.37;3.97;;;18.20;99.90;;;;;;4994457;28;20648;-74
2023/07/27 09:26:52;;;;;;;3.80;3.23;;;18.10;99.90;;;;;;4994105;28;20218;-73
2023/07/27 09:29:19;;;;;;;3.40;3.03;;;18.00;99.90;;;;;;4990804;28;20184;-74
2023/07/27 09:31:52;;;;;;;3.77;3.03;;;17.80;99.90;;;;;;4991561;28;20940;-73
2023/07/27 09:34:19;;;;;;;8.00;3.70;;;17.50;99.90;;;;;;4992117;28;20514;-74
2023/07/27 09:36:45;;;;;;;8.43;3.83;;;17.30;99.90;;;;;;4992288;28;20851;-74
2023/07/27 09:39:11;;;;;;;5.10;3.47;;;17.20;99.90;;;;;;4996529;28;20442;-74
2023/07/27 09:41:37;;;;;;;3.30;3.10;;;17.10;99.90;;;;;;4993529;28;20431;-73
2023/07/27 09:44:04;;;;;;;5.23;3.60;;;16.90;99.90;;;;;;4998280;28;20472;-74
2023/07/27 09:46:30;;;;;;;3.80;3.47;;;16.90;99.90;;;;;;5003626;28;20492;-74
2023/07/27 09:48:59;;;;;;;5.53;3.63;;;16.90;99.90;;;;;;4991765;28;20469;-74
2023/07/27 09:51:28;;;;;;;5.83;3.77;;;16.90;99.90;;;;;;4994347;28;20245;-74
2023/07/27 09:53:55;;;;;;;3.60;3.30;;;17.00;99.90;;;;;;4993620;28;20450;-74
2023/07/27 09:56:21;;;;;;;4.93;3.97;;;17.10;99.90;;;;;;4994276;28;20446;-74
2023/07/27 09:58:47;;;;;;;4.60;3.60;;;17.20;99.90;;;;;;4998999;28;20444;-74
2023/07/27 10:01:12;;;;;;;4.27;3.87;;;17.40;99.90;;;;;;5014941;28;20548;-74
2023/07/27 10:03:38;;;;;;;4.40;4.00;;;17.50;99.90;;;;;;5014853;28;20528;-73
2023/07/27 10:06:05;;;;;;;4.90;4.47;;;17.60;99.90;;;;;;5008521;28;20219;-74
2023/07/27 10:08:34;;;;;;;4.00;3.60;;;17.70;99.90;;;;;;4999538;28;20706;-74
2023/07/27 10:11:01;;;;;;;5.13;3.53;;;17.70;99.90;;;;;;5005070;28;20512;-74
2023/07/27 10:13:26;;;;;;;4.10;3.17;;;17.70;99.90;;;;;;5006479;28;20481;-74
2023/07/27 10:15:54;;;;;;;4.00;3.50;;;17.80;99.90;;;;;;5014871;28;21210;-74
2023/07/27 10:18:25;;;;;;;3.63;3.27;;;17.80;99.90;;;;;;5014092;28;20209;-73
2023/07/27 10:20:51;;;;;;;9.83;4.00;;;17.90;99.90;;;;;;5014647;28;20421;-74
2023/07/27 10:23:27;;;;;;;5.37;3.80;;;18.00;99.90;;;;;;4997281;28;20454;-74
2023/07/27 10:25:55;;;;;;;2.97;2.77;;;18.10;99.90;;;;;;5006442;28;20885;-74
2023/07/27 10:28:33;;;;;;;4.07;3.30;;;18.20;99.90;;;;;;5013688;28;20413;-74
2023/07/27 10:31:14;;;;;;;3.20;2.90;;;18.40;99.90;;;;;;5014042;28;20440;-74
2023/07/27 10:34:13;;;;;;;4.37;4.00;;;18.60;99.90;;;;;;5014464;28;20500;-74
2023/07/27 10:36:56;;;;;;;4.73;3.07;;;18.80;99.90;;;;;;5005765;28;20491;-74
2023/07/27 10:39:35;;;;;;;5.53;2.90;;;18.90;99.90;;;;;;5009240;28;20948;-74
2023/07/27 10:42:06;;;;;;;3.37;3.07;;;19.30;99.90;;;;;;5006178;28;20437;-74
2023/07/27 10:44:51;;;;;;;3.77;3.20;;;19.60;99.90;;;;;;5014017;28;20792;-74
2023/07/27 10:47:39;;;;;;;4.93;3.17;;;19.80;99.90;;;;;;5014265;28;20457;-73
2023/07/27 10:50:05;;;;;;;3.43;3.20;;;20.10;99.90;;;;;;5013452;28;20418;-74
2023/07/27 10:52:36;;;;;;;5.10;3.50;;;20.20;99.90;;;;;;5014057;28;20413;-74
2023/07/27 10:55:04;;;;;;;3.87;3.23;;;20.30;99.90;;;;;;5013859;28;20488;-73
2023/07/27 10:57:34;;;;;;;4.03;3.00;;;20.30;99.90;;;;;;5006778;28;20528;-74
2023/07/27 11:00:02;;;;;;;3.23;3.03;;;20.30;99.90;;;;;;5005131;28;20436;-74
2023/07/27 11:02:30;;;;;;;3.67;3.37;;;20.30;99.90;;;;;;5013971;28;20422;-74
2023/07/27 11:04:57;;;;;;;3.50;3.30;;;20.40;99.90;;;;;;5013751;28;20437;-73
2023/07/27 11:07:25;;;;;;;3.03;2.83;;;20.60;99.90;;;;;;5013658;28;20462;-74
2023/07/27 11:09:50;;;;;;;3.30;3.00;;;21.00;99.90;;;;;;5012951;28;20509;-73
2023/07/27 11:12:16;;;;;;;3.40;2.83;;;21.30;99.90;;;;;;5013552;28;20492;-74
2023/07/27 11:14:41;;;;;;;2.97;2.77;;;21.70;99.90;;;;;;5008240;28;20286;-74
2023/07/27 11:17:08;;;;;;;5.30;2.83;;;22.00;99.90;;;;;;5001882;28;20294;-75
2023/07/27 11:19:34;;;;;;;3.40;2.60;;;22.10;99.90;;;;;;5013003;28;20521;-74
2023/07/27 11:22:00;;;;;;;3.20;3.00;;;22.00;99.90;;;;;;5002841;28;20191;-73
2023/07/27 11:24:26;;;;;;;3.27;2.97;;;21.90;99.90;;;;;;5006935;28;20453;-73
2023/07/27 11:26:52;;;;;;;4.30;2.77;;;21.60;99.90;;;;;;4992453;28;20219;-69
2023/07/27 11:29:17;;;;;;;10.03;3.33;;;21.50;99.90;;;;;;4988829;28;20455;-69
2023/07/27 11:31:57;;;;;;;2.80;2.60;;;21.50;99.90;;;;;;4990198;28;20187;-69
2023/07/27 11:34:25;;;;;;;3.60;2.50;;;21.60;99.90;;;;;;4990077;28;20195;-69
2023/07/27 11:37:00;;;;;;;5.20;2.90;;;21.70;99.90;;;;;;4989648;28;20453;-69
2023/07/27 11:39:26;;;;;;;4.57;3.80;;;21.40;99.90;;;;;;5000111;28;20441;-69
2023/07/27 11:41:53;;;;;;;2.97;2.70;;;21.40;99.90;;;;;;4992220;28;21044;-69
2023/07/27 11:44:22;;;;;;;4.07;2.70;;;21.30;99.90;;;;;;4991221;28;20547;-70
2023/07/27 11:46:51;;;;;;;4.20;2.90;;;21.30;99.90;;;;;;4990471;28;20470;-70
2023/07/27 11:49:19;;;;;;;2.67;2.47;;;21.10;99.90;;;;;;4990176;28;20443;-69
2023/07/27 11:51:46;;;;;;;4.50;3.20;;;21.00;99.90;;;;;;4992503;28;20482;-69
2023/07/27 11:54:24;;;;;;;2.93;2.47;;;21.00;99.90;;;;;;5002515;28;20488;-69
2023/07/27 11:56:51;;;;;;;3.10;2.90;;;20.90;99.90;;;;;;4997745;28;20446;-69
2023/07/27 11:59:17;;;;;;;6.10;3.03;;;20.70;99.90;;;;;;4991863;28;20962;-69
2023/07/27 12:01:42;;;;;;;3.93;3.37;;;20.30;99.90;;;;;;4991683;28;20592;-69
2023/07/27 12:04:10;;;;;;;6.87;3.50;;;20.10;99.90;;;;;;4990359;28;20500;-67
2023/07/27 12:06:35;;;;;;;3.70;3.50;;;19.80;99.90;;;;;;4994329;28;20221;-67
2023/07/27 12:09:03;;;;;;;4.90;3.27;;;19.50;99.90;;;;;;4999238;28;20828;-67
2023/07/27 12:11:29;;;;;;;4.00;3.60;;;19.30;99.90;;;;;;4989966;28;20238;-67
2023/07/27 12:13:54;;;;;;;4.40;3.70;;;19.30;99.90;;;;;;4991821;28;20885;-66
2023/07/27 12:16:20;;;;;;;5.73;3.90;;;19.20;99.90;;;;;;4999626;28;20240;-67
2023/07/27 12:18:46;;;;;;;5.97;3.40;;;19.10;99.90;;;;;;4999484;28;20241;-67
2023/07/27 12:21:12;;;;;;;5.13;3.60;;;19.00;99.90;;;;;;4991322;28;20219;-67
2023/07/27 12:23:38;;;;;;;7.00;3.60;;;18.90;99.90;;;;;;4997856;28;20204;-67
2023/07/27 12:26:04;;;;;;;5.83;3.77;;;18.90;99.90;;;;;;4994251;28;20465;-67
2023/07/27 12:28:31;;;;;;;4.07;3.67;;;18.90;99.90;;;;;;5000790;28;20439;-67
2023/07/27 12:30:57;;;;;;;3.90;3.33;;;18.90;99.90;;;;;;4989207;28;20187;-67
2023/07/27 12:33:25;;;;;;;3.67;3.47;;;18.90;99.90;;;;;;4988889;28;20459;-67
2023/07/27 12:35:52;;;;;;;4.43;4.03;;;18.90;99.90;;;;;;4987588;28;20180;-67
2023/07/27 12:38:18;;;;;;;4.03;3.30;;;19.00;99.90;;;;;;4988836;28;20443;-67
2023/07/27 12:40:44;;;;;;;3.30;3.00;;;18.90;99.90;;;;;;4990355;28;20439;-67
2023/07/27 12:43:10;;;;;;;3.63;3.20;;;18.90;99.90;;;;;;4991600;28;20204;-67
2023/07/27 12:45:37;;;;;;;3.37;2.67;;;18.90;99.90;;;;;;5004656;28;20447;-67
2023/07/27 12:48:03;;;;;;;4.83;3.17;;;18.90;99.90;;;;;;4990526;28;20441;-67